FYLZ/LUD METAR and TAF weather

Enter ICAO airport designator
Station Type Date Time Source
FYLZ METAR 2022/05/25 00:00 UTC NOAA

FYLZ 250000Z AUTO 11003KT //// // ////// 14/06 Q1016


Station Type Date Time Source
FYLZ Decoded METAR 2022/05/25 00:00 UTC NOAA

Luderitz / Diaz Point, Namibia (FYLZ) 26-41S 015-15E
May 24, 2022 - 08:00 PM EDT / 2022.05.25 0000 UTC
Wind: from the ESE (110 degrees) at 3 MPH (3 KT):0
Temperature: 57 F (14 C)
Dew Point: 42 F (6 C)
Relative Humidity: 58%
Pressure (altimeter): 30.00 in. Hg (1016 hPa)
ob: FYLZ 250000Z AUTO 11003KT //// // ////// 14/06 Q1016
cycle: 0

Station Type Date Time Source
FYLZ TAF 2014/11/15 15:19 UTC NOAA

TAF FYLZ 151400Z 1515/1524 18015G28KT CAVOK
BECMG 1518/1520 16020KT

Example: see airport list